Time;durP1;ratioP1;P1;durP2;ratioP2;P2;SDS_P1;SDS_P2;PMS_P1;PMS_P2;Temp;Humidity;BMP_temperature;BMP_pressure;BME280_temperature;BME280_humidity;BME280_pressure;Samples;Min_cycle;Max_cycle;Signal;HPM_P1;HPM_P2
2023/10/14 00:00:25;;;;;;;0.10;0.10;;;;;;;;;;1039211;28;20025;-70
2023/10/14 00:00:55;;;;;;;0.22;0.22;;;;;;;;;;1039517;28;20074;-70
2023/10/14 00:01:26;;;;;;;0.10;0.10;;;;;;;;;;1039513;28;20523;-70
2023/10/14 00:02:08;;;;;;;0.90;0.90;;;;;;;;;;1039704;28;20025;-70
2023/10/14 00:02:40;;;;;;;0.10;0.10;;;;;;;;;;1038969;28;20024;-70
2023/10/14 00:04:01;;;;;;;0.10;0.10;;;;;;;;;;1039568;28;20466;-70
2023/10/14 00:04:31;;;;;;;0.10;0.10;;;;;;;;;;1042639;28;20036;-70
2023/10/14 00:05:02;;;;;;;0.32;0.32;;;;;;;;;;1043850;28;20032;-70
2023/10/14 00:05:32;;;;;;;0.00;0.00;;;;;;;;;;1043606;28;20025;-70
2023/10/14 00:06:06;;;;;;;0.20;0.20;;;;;;;;;;1043881;28;20036;-70
2023/10/14 00:06:39;;;;;;;0.10;0.10;;;;;;;;;;1043164;28;20140;-70
2023/10/14 00:07:11;;;;;;;0.15;0.15;;;;;;;;;;1044143;28;20112;-70
2023/10/14 00:07:42;;;;;;;0.10;0.10;;;;;;;;;;1043939;28;20029;-69
2023/10/14 00:08:13;;;;;;;0.10;0.10;;;;;;;;;;1043404;28;20503;-70
2023/10/14 00:09:21;;;;;;;0.10;0.10;;;;;;;;;;1043880;28;20472;-69
2023/10/14 00:09:52;;;;;;;0.10;0.10;;;;;;;;;;1043947;28;20025;-69
2023/10/14 00:10:23;;;;;;;0.00;0.00;;;;;;;;;;1039249;28;20025;-69
2023/10/14 00:10:54;;;;;;;0.10;0.10;;;;;;;;;;1039694;28;20184;-69
2023/10/14 00:11:51;;;;;;;0.00;0.00;;;;;;;;;;1039478;28;20037;-69
2023/10/14 00:12:16;;;;;;;0.25;0.25;;;;;;;;;;1042263;28;20032;-69
2023/10/14 00:12:53;;;;;;;0.10;0.10;;;;;;;;;;1043822;28;20084;-70
2023/10/14 00:13:30;;;;;;;0.10;0.10;;;;;;;;;;1043835;28;20078;-70
2023/10/14 00:14:02;;;;;;;0.10;0.10;;;;;;;;;;1043875;28;20029;-70
2023/10/14 00:14:33;;;;;;;0.10;0.10;;;;;;;;;;1043714;28;20373;-70
2023/10/14 00:15:04;;;;;;;0.10;0.10;;;;;;;;;;1043976;28;20025;-70
2023/10/14 00:15:35;;;;;;;0.10;0.10;;;;;;;;;;1042935;28;20028;-70
2023/10/14 00:16:10;;;;;;;0.10;0.10;;;;;;;;;;1043945;28;20135;-70
2023/10/14 00:16:42;;;;;;;0.10;0.10;;;;;;;;;;1044637;28;20064;-70
2023/10/14 00:17:17;;;;;;;0.10;0.10;;;;;;;;;;1039600;28;20036;-70
2023/10/14 00:17:49;;;;;;;0.10;0.10;;;;;;;;;;1037822;28;20088;-70
2023/10/14 00:18:19;;;;;;;0.10;0.10;;;;;;;;;;1037182;28;20473;-70
2023/10/14 00:18:50;;;;;;;0.13;0.13;;;;;;;;;;1037036;28;20104;-70
2023/10/14 00:19:22;;;;;;;0.10;0.10;;;;;;;;;;1036489;28;20040;-70
2023/10/14 00:19:55;;;;;;;0.20;0.20;;;;;;;;;;1037388;28;20021;-70
2023/10/14 00:20:26;;;;;;;0.10;0.10;;;;;;;;;;1037233;28;20035;-70
2023/10/14 00:20:56;;;;;;;0.00;0.00;;;;;;;;;;1038044;28;20018;-70
2023/10/14 00:21:27;;;;;;;0.10;0.10;;;;;;;;;;1040018;28;20470;-70
2023/10/14 00:21:57;;;;;;;0.13;0.13;;;;;;;;;;1043427;28;20033;-70
2023/10/14 00:22:29;;;;;;;0.10;0.10;;;;;;;;;;1043425;28;20053;-70
2023/10/14 00:23:00;;;;;;;0.15;0.15;;;;;;;;;;1043956;28;20052;-70
2023/10/14 00:23:31;;;;;;;0.10;0.10;;;;;;;;;;1043938;28;20461;-70
2023/10/14 00:24:03;;;;;;;0.00;0.00;;;;;;;;;;1043923;28;20081;-70
2023/10/14 00:24:37;;;;;;;0.10;0.10;;;;;;;;;;1043645;28;20039;-70
2023/10/14 00:25:19;;;;;;;0.10;0.10;;;;;;;;;;1043369;28;20024;-70
2023/10/14 00:25:50;;;;;;;0.10;0.10;;;;;;;;;;1042963;28;20021;-70
2023/10/14 00:26:20;;;;;;;0.30;0.30;;;;;;;;;;1043699;28;20052;-70
2023/10/14 00:26:52;;;;;;;0.10;0.10;;;;;;;;;;1044060;28;20020;-70
2023/10/14 00:27:23;;;;;;;0.40;0.40;;;;;;;;;;1043889;28;20075;-70
2023/10/14 00:27:54;;;;;;;0.10;0.10;;;;;;;;;;1043794;28;20066;-71
2023/10/14 00:28:25;;;;;;;2.45;0.57;;;;;;;;;;1043975;28;20025;-70
2023/10/14 00:29:38;;;;;;;0.10;0.10;;;;;;;;;;1044046;28;20056;-70
2023/10/14 00:29:50;;;;;;;0.10;0.10;;;;;;;;;;1035608;28;20030;-70
2023/10/14 00:30:22;;;;;;;0.00;0.00;;;;;;;;;;1042729;28;20029;-71
2023/10/14 00:30:55;;;;;;;0.10;0.10;;;;;;;;;;1043959;28;20024;-71
2023/10/14 00:31:26;;;;;;;0.10;0.10;;;;;;;;;;1039534;28;20079;-71
2023/10/14 00:32:03;;;;;;;0.10;0.10;;;;;;;;;;1039528;28;20017;-71
2023/10/14 00:32:33;;;;;;;0.10;0.10;;;;;;;;;;1039543;28;20069;-71
2023/10/14 00:33:04;;;;;;;0.10;0.10;;;;;;;;;;1039374;28;20029;-71
2023/10/14 00:33:35;;;;;;;0.10;0.10;;;;;;;;;;1039349;28;20061;-71
2023/10/14 00:34:06;;;;;;;0.10;0.10;;;;;;;;;;1042704;28;20027;-71
2023/10/14 00:34:36;;;;;;;0.17;0.17;;;;;;;;;;1039344;28;20033;-71
2023/10/14 00:35:09;;;;;;;0.10;0.10;;;;;;;;;;1039477;28;20497;-71
2023/10/14 00:35:40;;;;;;;0.10;0.10;;;;;;;;;;1039442;28;21158;-71
2023/10/14 00:36:11;;;;;;;0.10;0.10;;;;;;;;;;1039597;28;20056;-71
2023/10/14 00:36:42;;;;;;;0.17;0.17;;;;;;;;;;1039524;28;20063;-71
2023/10/14 00:37:13;;;;;;;0.20;0.20;;;;;;;;;;1039574;28;20037;-71
2023/10/14 00:37:44;;;;;;;0.10;0.10;;;;;;;;;;1043920;28;20064;-71
2023/10/14 00:38:15;;;;;;;0.10;0.10;;;;;;;;;;1043972;28;20129;-71
2023/10/14 00:38:46;;;;;;;1.38;1.30;;;;;;;;;;1043936;28;20021;-70
2023/10/14 00:39:17;;;;;;;0.52;0.52;;;;;;;;;;1039354;28;20021;-70
2023/10/14 00:40:00;;;;;;;0.00;0.00;;;;;;;;;;1035475;28;20109;-71
2023/10/14 00:40:31;;;;;;;0.10;0.10;;;;;;;;;;1034735;28;20610;-71
2023/10/14 00:41:01;;;;;;;0.10;0.10;;;;;;;;;;1034292;28;20014;-70
2023/10/14 00:41:36;;;;;;;0.10;0.10;;;;;;;;;;1037461;28;20022;-71
2023/10/14 00:42:08;;;;;;;0.10;0.10;;;;;;;;;;1039436;28;20454;-71
2023/10/14 00:42:41;;;;;;;0.10;0.10;;;;;;;;;;1038040;28;20048;-71
2023/10/14 00:43:12;;;;;;;0.10;0.10;;;;;;;;;;1037396;28;20129;-71
2023/10/14 00:43:43;;;;;;;0.10;0.10;;;;;;;;;;1034715;28;20057;-71
2023/10/14 00:44:13;;;;;;;0.10;0.10;;;;;;;;;;1035254;28;20112;-71
2023/10/14 00:44:44;;;;;;;0.10;0.10;;;;;;;;;;1037412;28;20056;-71
2023/10/14 00:45:14;;;;;;;0.10;0.10;;;;;;;;;;1039425;28;20200;-71
2023/10/14 00:45:45;;;;;;;0.15;0.15;;;;;;;;;;1035351;28;20030;-71
2023/10/14 00:46:16;;;;;;;0.08;0.08;;;;;;;;;;1035576;28;20038;-71
2023/10/14 00:46:50;;;;;;;0.10;0.10;;;;;;;;;;1035647;28;20040;-71
2023/10/14 00:47:24;;;;;;;0.10;0.10;;;;;;;;;;1040225;28;20029;-71
2023/10/14 00:47:56;;;;;;;0.10;0.10;;;;;;;;;;1044106;28;20111;-71
2023/10/14 00:48:29;;;;;;;0.10;0.10;;;;;;;;;;1044139;28;20028;-70
2023/10/14 00:49:02;;;;;;;0.10;0.10;;;;;;;;;;1043732;28;20017;-71
2023/10/14 00:49:34;;;;;;;0.08;0.08;;;;;;;;;;1043653;28;20020;-71
2023/10/14 00:50:21;;;;;;;0.20;0.20;;;;;;;;;;1038948;28;20021;-70
2023/10/14 00:50:52;;;;;;;0.10;0.10;;;;;;;;;;1039471;28;20476;-71
2023/10/14 00:51:26;;;;;;;0.10;0.10;;;;;;;;;;1039439;28;20032;-71
2023/10/14 00:51:59;;;;;;;0.10;0.10;;;;;;;;;;1039453;28;20037;-70
2023/10/14 00:52:30;;;;;;;0.10;0.10;;;;;;;;;;1039095;28;20021;-71
2023/10/14 00:53:05;;;;;;;0.10;0.10;;;;;;;;;;1035225;28;20032;-71
2023/10/14 00:53:39;;;;;;;0.20;0.20;;;;;;;;;;1036243;28;20029;-70
2023/10/14 00:54:25;;;;;;;0.10;0.10;;;;;;;;;;1040232;28;20112;-71
2023/10/14 00:55:12;;;;;;;0.13;0.13;;;;;;;;;;1042918;28;20517;-70
2023/10/14 00:55:51;;;;;;;0.10;0.10;;;;;;;;;;1039485;28;20021;-71
2023/10/14 00:56:27;;;;;;;0.10;0.10;;;;;;;;;;1039374;28;20026;-71
2023/10/14 00:57:09;;;;;;;0.28;0.28;;;;;;;;;;1039657;28;20013;-71
2023/10/14 00:57:44;;;;;;;0.10;0.10;;;;;;;;;;1039107;28;20028;-71
2023/10/14 00:58:20;;;;;;;0.10;0.10;;;;;;;;;;1039419;28;20032;-71
2023/10/14 00:58:57;;;;;;;0.10;0.10;;;;;;;;;;1039407;28;20101;-71
2023/10/14 00:59:28;;;;;;;0.20;0.20;;;;;;;;;;1039500;28;20117;-71
2023/10/14 00:59:59;;;;;;;0.03;0.03;;;;;;;;;;1038899;28;20107;-70
2023/10/14 01:01:48;;;;;;;0.00;0.00;;;;;;;;;;1030872;28;20080;-71
2023/10/14 01:02:40;;;;;;;0.10;0.10;;;;;;;;;;1042760;28;20060;-70
2023/10/14 01:03:10;;;;;;;0.10;0.10;;;;;;;;;;1042681;28;20500;-70
2023/10/14 01:03:41;;;;;;;0.10;0.10;;;;;;;;;;1043090;28;20040;-71
2023/10/14 01:04:22;;;;;;;0.03;0.03;;;;;;;;;;1043337;28;20032;-71
2023/10/14 01:04:53;;;;;;;0.10;0.10;;;;;;;;;;1044023;28;20393;-71
2023/10/14 01:05:24;;;;;;;0.20;0.20;;;;;;;;;;1043762;28;20124;-71
2023/10/14 01:05:57;;;;;;;0.10;0.10;;;;;;;;;;1043940;28;20033;-71
2023/10/14 01:06:53;;;;;;;0.08;0.08;;;;;;;;;;1038764;28;20017;-71
2023/10/14 01:07:24;;;;;;;0.10;0.10;;;;;;;;;;1036373;28;21202;-71
2023/10/14 01:07:58;;;;;;;0.10;0.10;;;;;;;;;;1037287;28;20048;-71
2023/10/14 01:08:29;;;;;;;0.90;0.90;;;;;;;;;;1038923;28;20059;-71
2023/10/14 01:09:10;;;;;;;0.43;0.43;;;;;;;;;;1039163;28;20516;-71
2023/10/14 01:10:24;;;;;;;0.10;0.10;;;;;;;;;;1041615;28;20536;-71
2023/10/14 01:10:55;;;;;;;0.10;0.10;;;;;;;;;;1043203;28;20029;-71
2023/10/14 01:11:26;;;;;;;0.10;0.10;;;;;;;;;;1039162;28;20025;-71
2023/10/14 01:11:58;;;;;;;0.10;0.10;;;;;;;;;;1038834;28;20040;-71
2023/10/14 01:12:39;;;;;;;0.30;0.30;;;;;;;;;;1038465;28;20176;-71
2023/10/14 01:13:13;;;;;;;;;;;;;;;;;;1037643;28;20029;-71
2023/10/14 01:13:47;;;;;;;0.20;0.20;;;;;;;;;;1038684;28;19924;-71
2023/10/14 01:14:23;;;;;;;0.10;0.10;;;;;;;;;;1035882;28;20021;-70
2023/10/14 01:14:58;;;;;;;0.20;0.20;;;;;;;;;;1037811;28;20037;-71
2023/10/14 01:15:31;;;;;;;0.15;0.15;;;;;;;;;;1039144;28;20147;-71
2023/10/14 01:16:08;;;;;;;0.10;0.10;;;;;;;;;;1039178;28;20029;-71
2023/10/14 01:16:41;;;;;;;0.10;0.10;;;;;;;;;;1038102;28;20029;-71
2023/10/14 01:17:25;;;;;;;0.10;0.10;;;;;;;;;;1038005;28;20071;-71
2023/10/14 01:17:55;;;;;;;0.00;0.00;;;;;;;;;;1038378;28;20017;-71
2023/10/14 01:18:26;;;;;;;2.28;0.30;;;;;;;;;;1040155;28;20024;-71
2023/10/14 01:18:57;;;;;;;0.10;0.10;;;;;;;;;;1042697;28;20073;-71
2023/10/14 01:19:28;;;;;;;0.10;0.10;;;;;;;;;;1037265;28;20031;-71
2023/10/14 01:20:00;;;;;;;0.10;0.10;;;;;;;;;;1036949;28;20080;-71
2023/10/14 01:20:40;;;;;;;0.22;0.22;;;;;;;;;;1038588;28;20410;-71
2023/10/14 01:21:10;;;;;;;0.15;0.15;;;;;;;;;;1036064;28;20057;-71
2023/10/14 01:21:43;;;;;;;0.20;0.20;;;;;;;;;;1035617;28;20036;-70
2023/10/14 01:22:14;;;;;;;0.10;0.10;;;;;;;;;;1037644;28;20056;-71
2023/10/14 01:23:38;;;;;;;0.10;0.10;;;;;;;;;;1034046;28;20029;-71
2023/10/14 01:24:16;;;;;;;0.10;0.10;;;;;;;;;;1038570;28;20021;-71
2023/10/14 01:24:47;;;;;;;0.10;0.10;;;;;;;;;;1034608;28;20017;-71
2023/10/14 01:25:20;;;;;;;0.10;0.10;;;;;;;;;;1034864;28;20429;-70
2023/10/14 01:25:52;;;;;;;0.32;0.32;;;;;;;;;;1033743;28;20022;-71
2023/10/14 01:26:22;;;;;;;0.10;0.10;;;;;;;;;;1033872;28;20471;-71
2023/10/14 01:27:07;;;;;;;0.10;0.10;;;;;;;;;;1034874;28;20031;-71
2023/10/14 01:27:38;;;;;;;0.08;0.08;;;;;;;;;;1036428;28;20754;-71
2023/10/14 01:28:12;;;;;;;1.33;0.68;;;;;;;;;;1033875;28;20498;-71
2023/10/14 01:28:52;;;;;;;0.30;0.30;;;;;;;;;;1036277;28;20033;-71
2023/10/14 01:29:30;;;;;;;0.10;0.10;;;;;;;;;;1038281;28;20026;-71
2023/10/14 01:30:08;;;;;;;3.50;1.65;;;;;;;;;;1037247;28;20509;-71
2023/10/14 01:31:11;;;;;;;0.10;0.10;;;;;;;;;;1038584;28;20029;-71
2023/10/14 01:31:47;;;;;;;0.10;0.10;;;;;;;;;;1037124;28;20030;-70
2023/10/14 01:32:24;;;;;;;0.10;0.10;;;;;;;;;;1042706;28;20053;-71
2023/10/14 01:33:15;;;;;;;0.20;0.20;;;;;;;;;;1038064;28;20113;-71
2023/10/14 01:33:46;;;;;;;0.10;0.10;;;;;;;;;;1034355;28;20036;-71
2023/10/14 01:34:24;;;;;;;0.10;0.10;;;;;;;;;;1034136;28;20026;-70
2023/10/14 01:35:00;;;;;;;0.10;0.10;;;;;;;;;;1038295;28;20048;-71
2023/10/14 01:35:31;;;;;;;0.38;0.38;;;;;;;;;;1035537;28;22145;-71
2023/10/14 01:36:03;;;;;;;0.30;0.30;;;;;;;;;;1038365;28;20026;-70
2023/10/14 01:36:37;;;;;;;0.10;0.10;;;;;;;;;;1035137;28;20444;-71
2023/10/14 01:37:19;;;;;;;0.10;0.10;;;;;;;;;;1036429;28;20635;-70
2023/10/14 01:37:57;;;;;;;0.10;0.10;;;;;;;;;;1035192;28;20128;-71
2023/10/14 01:38:30;;;;;;;0.13;0.13;;;;;;;;;;1038195;28;20049;-70
2023/10/14 01:39:21;;;;;;;0.10;0.10;;;;;;;;;;1039394;28;20509;-70
2023/10/14 01:39:56;;;;;;;0.10;0.10;;;;;;;;;;1037719;28;20549;-70
2023/10/14 01:40:48;;;;;;;0.10;0.10;;;;;;;;;;1041864;28;20029;-70
2023/10/14 01:41:19;;;;;;;0.00;0.00;;;;;;;;;;1042543;28;20017;-71
2023/10/14 01:41:53;;;;;;;0.10;0.10;;;;;;;;;;1038767;28;20040;-71
2023/10/14 01:42:24;;;;;;;0.10;0.10;;;;;;;;;;1039287;28;20036;-70
2023/10/14 01:43:10;;;;;;;0.10;0.10;;;;;;;;;;1038922;28;20096;-70
2023/10/14 01:43:41;;;;;;;0.60;0.28;;;;;;;;;;1041795;28;20025;-70
2023/10/14 01:44:15;;;;;;;0.17;0.17;;;;;;;;;;1042435;28;20021;-71
2023/10/14 01:44:45;;;;;;;0.10;0.10;;;;;;;;;;1042934;28;20029;-70
2023/10/14 01:45:20;;;;;;;0.00;0.00;;;;;;;;;;1043365;28;20021;-71
2023/10/14 01:46:27;;;;;;;0.13;0.13;;;;;;;;;;1043445;28;20036;-71
2023/10/14 01:47:01;;;;;;;0.20;0.20;;;;;;;;;;1045010;28;20088;-71
2023/10/14 01:47:32;;;;;;;0.10;0.10;;;;;;;;;;1043179;28;20025;-69
2023/10/14 01:48:44;;;;;;;0.10;0.10;;;;;;;;;;1042665;28;20021;-70
2023/10/14 01:49:19;;;;;;;0.60;0.20;;;;;;;;;;1043086;28;20106;-70
2023/10/14 01:49:51;;;;;;;0.10;0.10;;;;;;;;;;1043413;28;20091;-70
2023/10/14 01:50:22;;;;;;;0.20;0.20;;;;;;;;;;1038360;28;20464;-69
2023/10/14 01:50:57;;;;;;;0.20;0.20;;;;;;;;;;1035095;28;20030;-71
2023/10/14 01:51:33;;;;;;;0.20;0.20;;;;;;;;;;1034707;28;20371;-70
2023/10/14 01:52:08;;;;;;;0.57;0.57;;;;;;;;;;1038361;28;20033;-70
2023/10/14 01:52:39;;;;;;;0.38;0.25;;;;;;;;;;1042260;28;20026;-69
2023/10/14 01:53:10;;;;;;;0.10;0.10;;;;;;;;;;1043967;28;20063;-70
2023/10/14 01:53:42;;;;;;;0.10;0.10;;;;;;;;;;1044386;28;20108;-71
2023/10/14 01:54:15;;;;;;;0.00;0.00;;;;;;;;;;1041930;28;20028;-71
2023/10/14 01:54:55;;;;;;;0.10;0.10;;;;;;;;;;1044087;28;20471;-71
2023/10/14 01:55:26;;;;;;;0.10;0.10;;;;;;;;;;1039163;28;20113;-71
2023/10/14 01:55:59;;;;;;;0.10;0.10;;;;;;;;;;1039587;28;20038;-71
2023/10/14 01:56:30;;;;;;;0.10;0.10;;;;;;;;;;1039140;28;20121;-70
2023/10/14 01:57:01;;;;;;;0.28;0.28;;;;;;;;;;1039669;28;20021;-70
2023/10/14 01:57:38;;;;;;;0.13;0.13;;;;;;;;;;1038994;28;20120;-70
2023/10/14 01:58:21;;;;;;;0.10;0.10;;;;;;;;;;1039134;28;20615;-71
2023/10/14 01:58:57;;;;;;;0.57;0.30;;;;;;;;;;1036110;28;20030;-70
2023/10/14 01:59:28;;;;;;;0.10;0.10;;;;;;;;;;1038646;28;20037;-70
2023/10/14 02:00:24;;;;;;;0.30;0.30;;;;;;;;;;1042293;28;20519;-70
2023/10/14 02:00:58;;;;;;;0.35;0.35;;;;;;;;;;1043007;28;20344;-70
2023/10/14 02:01:34;;;;;;;0.13;0.13;;;;;;;;;;1043537;28;20091;-70
2023/10/14 02:02:05;;;;;;;0.10;0.10;;;;;;;;;;1043358;28;20029;-71
2023/10/14 02:02:39;;;;;;;0.35;0.35;;;;;;;;;;1039226;28;20025;-71
2023/10/14 02:03:11;;;;;;;0.38;0.30;;;;;;;;;;1037388;28;20054;-72
2023/10/14 02:03:50;;;;;;;0.10;0.10;;;;;;;;;;1037049;28;20021;-71
2023/10/14 02:04:20;;;;;;;0.00;0.00;;;;;;;;;;1038134;28;20048;-70
2023/10/14 02:04:55;;;;;;;0.10;0.10;;;;;;;;;;1040792;28;20053;-70
2023/10/14 02:05:27;;;;;;;0.10;0.10;;;;;;;;;;1043291;28;20048;-70
2023/10/14 02:05:58;;;;;;;0.13;0.13;;;;;;;;;;1043743;28;20169;-70
2023/10/14 02:06:32;;;;;;;0.15;0.13;;;;;;;;;;1038864;28;20034;-70
2023/10/14 02:07:21;;;;;;;3.05;0.75;;;;;;;;;;1037461;28;20025;-71
2023/10/14 02:07:52;;;;;;;0.10;0.10;;;;;;;;;;1035324;28;20183;-71
2023/10/14 02:08:23;;;;;;;0.13;0.13;;;;;;;;;;1036554;28;20029;-71
2023/10/14 02:08:54;;;;;;;0.47;0.47;;;;;;;;;;1042551;28;20025;-70
2023/10/14 02:09:29;;;;;;;0.10;0.10;;;;;;;;;;1039942;28;20044;-70
2023/10/14 02:10:03;;;;;;;0.10;0.10;;;;;;;;;;1039265;28;20034;-71
2023/10/14 02:10:35;;;;;;;0.10;0.10;;;;;;;;;;1039159;28;20010;-70
2023/10/14 02:11:06;;;;;;;0.20;0.20;;;;;;;;;;1035775;28;20037;-71
2023/10/14 02:11:38;;;;;;;1.27;1.17;;;;;;;;;;1036074;28;20022;-71
2023/10/14 02:12:08;;;;;;;0.10;0.10;;;;;;;;;;1035977;28;20497;-70
2023/10/14 02:12:42;;;;;;;0.00;0.00;;;;;;;;;;1039948;28;20171;-70
2023/10/14 02:13:14;;;;;;;0.10;0.10;;;;;;;;;;1044399;28;20423;-71
2023/10/14 02:13:45;;;;;;;0.10;0.10;;;;;;;;;;1042728;28;20119;-70
2023/10/14 02:14:22;;;;;;;0.10;0.10;;;;;;;;;;1043965;28;20107;-71
2023/10/14 02:14:59;;;;;;;0.22;0.22;;;;;;;;;;1043739;28;20081;-69
2023/10/14 02:15:30;;;;;;;0.10;0.10;;;;;;;;;;1044328;28;20021;-69
2023/10/14 02:16:06;;;;;;;0.10;0.10;;;;;;;;;;1044026;28;20020;-70
2023/10/14 02:16:46;;;;;;;0.15;0.15;;;;;;;;;;1040565;28;20025;-69
2023/10/14 02:17:18;;;;;;;0.10;0.10;;;;;;;;;;1039847;28;20053;-71
2023/10/14 02:17:48;;;;;;;0.13;0.13;;;;;;;;;;1039705;28;20052;-70
2023/10/14 02:18:21;;;;;;;0.10;0.10;;;;;;;;;;1040607;28;20500;-70
2023/10/14 02:19:00;;;;;;;0.20;0.20;;;;;;;;;;1043117;28;20376;-71
2023/10/14 02:20:20;;;;;;;0.10;0.10;;;;;;;;;;1040332;28;20114;-71
2023/10/14 02:20:57;;;;;;;0.10;0.10;;;;;;;;;;1040003;28;20049;-70
2023/10/14 02:21:34;;;;;;;0.10;0.10;;;;;;;;;;1044744;28;20107;-71
2023/10/14 02:22:10;;;;;;;1.08;0.70;;;;;;;;;;1044853;28;20049;-69
2023/10/14 02:22:41;;;;;;;0.20;0.20;;;;;;;;;;1043702;28;20036;-69
2023/10/14 02:23:12;;;;;;;0.10;0.10;;;;;;;;;;1044221;28;20016;-69
2023/10/14 02:23:45;;;;;;;0.10;0.10;;;;;;;;;;1043455;28;20017;-71
2023/10/14 02:24:18;;;;;;;0.10;0.10;;;;;;;;;;1043879;28;20025;-69
2023/10/14 02:24:49;;;;;;;0.10;0.10;;;;;;;;;;1044026;28;20388;-70
2023/10/14 02:25:20;;;;;;;0.20;0.20;;;;;;;;;;1039331;28;20667;-69
2023/10/14 02:25:56;;;;;;;1.38;0.45;;;;;;;;;;1039746;28;20462;-69
2023/10/14 02:26:30;;;;;;;0.10;0.10;;;;;;;;;;1039403;28;20411;-70
2023/10/14 02:27:34;;;;;;;0.10;0.10;;;;;;;;;;1041016;28;20515;-69
2023/10/14 02:27:58;;;;;;;0.45;0.45;;;;;;;;;;1041293;28;20043;-72
2023/10/14 02:28:40;;;;;;;0.20;0.20;;;;;;;;;;1043449;28;20024;-70
2023/10/14 02:29:11;;;;;;;0.50;0.50;;;;;;;;;;1042899;28;20070;-71
2023/10/14 02:29:47;;;;;;;0.10;0.10;;;;;;;;;;1043262;28;20070;-70
2023/10/14 02:30:18;;;;;;;0.10;0.10;;;;;;;;;;1043200;28;20024;-70
2023/10/14 02:30:52;;;;;;;0.10;0.10;;;;;;;;;;1043488;28;20028;-70
2023/10/14 02:32:00;;;;;;;0.00;0.00;;;;;;;;;;1039212;28;20512;-70
2023/10/14 02:32:31;;;;;;;0.10;0.10;;;;;;;;;;1034561;28;20026;-70
2023/10/14 02:33:01;;;;;;;0.63;0.63;;;;;;;;;;1036238;28;20026;-70
2023/10/14 02:33:32;;;;;;;0.10;0.10;;;;;;;;;;1039351;28;20799;-70
2023/10/14 02:34:07;;;;;;;0.10;0.10;;;;;;;;;;1038683;28;20589;-71
2023/10/14 02:34:38;;;;;;;0.10;0.10;;;;;;;;;;1042821;28;20531;-71
2023/10/14 02:35:12;;;;;;;0.10;0.10;;;;;;;;;;1038890;28;20325;-70
2023/10/14 02:35:44;;;;;;;0.30;0.30;;;;;;;;;;1039050;28;20028;-70
2023/10/14 02:36:15;;;;;;;0.10;0.10;;;;;;;;;;1034024;28;20061;-70
2023/10/14 02:36:49;;;;;;;0.10;0.10;;;;;;;;;;1035134;28;20036;-72
2023/10/14 02:37:21;;;;;;;0.10;0.10;;;;;;;;;;1035882;28;20368;-70
2023/10/14 02:37:54;;;;;;;1.02;0.82;;;;;;;;;;1040253;28;20032;-68
2023/10/14 02:38:24;;;;;;;0.47;0.47;;;;;;;;;;1038998;28;20506;-70
2023/10/14 02:38:58;;;;;;;0.20;0.20;;;;;;;;;;1039282;28;20029;-71
2023/10/14 02:39:29;;;;;;;0.10;0.10;;;;;;;;;;1039247;28;20438;-70
2023/10/14 02:40:00;;;;;;;0.10;0.10;;;;;;;;;;1038049;28;20493;-71
2023/10/14 02:40:31;;;;;;;0.10;0.10;;;;;;;;;;1038789;28;20033;-70
2023/10/14 02:41:04;;;;;;;0.10;0.10;;;;;;;;;;1039256;28;20519;-70
2023/10/14 02:41:34;;;;;;;0.52;0.52;;;;;;;;;;1035525;28;20021;-70
2023/10/14 02:42:35;;;;;;;0.10;0.10;;;;;;;;;;1039209;28;20596;-70
2023/10/14 02:43:06;;;;;;;0.10;0.10;;;;;;;;;;1036213;28;20092;-71
2023/10/14 02:43:38;;;;;;;0.10;0.10;;;;;;;;;;1037717;28;20560;-71
2023/10/14 02:44:46;;;;;;;0.10;0.10;;;;;;;;;;1037865;28;20033;-71
2023/10/14 02:45:19;;;;;;;0.28;0.28;;;;;;;;;;1043529;28;20024;-70
2023/10/14 02:45:50;;;;;;;0.20;0.20;;;;;;;;;;1044598;28;20033;-70
2023/10/14 02:46:21;;;;;;;0.25;0.25;;;;;;;;;;1042292;28;20385;-70
2023/10/14 02:46:54;;;;;;;0.15;0.15;;;;;;;;;;1043641;28;20644;-70
2023/10/14 02:47:27;;;;;;;0.10;0.10;;;;;;;;;;1043624;28;20128;-71
2023/10/14 02:48:01;;;;;;;0.20;0.20;;;;;;;;;;1043675;28;20051;-70
2023/10/14 02:48:52;;;;;;;0.20;0.20;;;;;;;;;;1043349;28;20029;-69
2023/10/14 02:49:25;;;;;;;0.10;0.10;;;;;;;;;;1042763;28;20017;-70
2023/10/14 02:50:04;;;;;;;0.20;0.20;;;;;;;;;;1043893;28;20516;-70
2023/10/14 02:50:36;;;;;;;0.10;0.10;;;;;;;;;;1043540;28;20025;-70
2023/10/14 02:51:06;;;;;;;0.10;0.10;;;;;;;;;;1038721;28;20041;-70
2023/10/14 02:51:42;;;;;;;0.15;0.15;;;;;;;;;;1039031;28;20032;-70
2023/10/14 02:52:18;;;;;;;0.17;0.17;;;;;;;;;;1038498;28;20485;-70
2023/10/14 02:52:49;;;;;;;0.10;0.10;;;;;;;;;;1035500;28;21226;-70
2023/10/14 02:53:27;;;;;;;0.10;0.10;;;;;;;;;;1037813;28;20486;-70
2023/10/14 02:54:04;;;;;;;0.10;0.10;;;;;;;;;;1038592;28;20041;-70
2023/10/14 02:54:36;;;;;;;0.10;0.10;;;;;;;;;;1037921;28;20034;-70
2023/10/14 02:55:24;;;;;;;0.20;0.20;;;;;;;;;;1038136;28;20036;-70
2023/10/14 02:56:04;;;;;;;0.00;0.00;;;;;;;;;;1038898;28;20517;-70
2023/10/14 02:57:38;;;;;;;2.10;0.40;;;;;;;;;;1034814;28;20854;-70
2023/10/14 02:58:09;;;;;;;0.20;0.20;;;;;;;;;;1034866;28;20285;-70
2023/10/14 02:58:40;;;;;;;0.13;0.13;;;;;;;;;;1035136;28;20441;-69
2023/10/14 02:59:15;;;;;;;0.15;0.15;;;;;;;;;;1034164;28;20101;-69
2023/10/14 02:59:47;;;;;;;0.25;0.25;;;;;;;;;;1033909;28;20026;-69
2023/10/14 03:00:32;;;;;;;0.85;0.70;;;;;;;;;;1034487;28;20033;-69
2023/10/14 03:01:05;;;;;;;0.10;0.10;;;;;;;;;;1038425;28;20021;-69
2023/10/14 03:01:35;;;;;;;0.30;0.30;;;;;;;;;;1038994;28;20448;-70
2023/10/14 03:03:14;;;;;;;0.20;0.20;;;;;;;;;;1027547;28;20037;-70
2023/10/14 03:03:48;;;;;;;0.10;0.10;;;;;;;;;;1027200;28;20419;-70
2023/10/14 03:04:23;;;;;;;0.22;0.22;;;;;;;;;;1035650;28;20124;-70
2023/10/14 03:05:08;;;;;;;1.00;1.00;;;;;;;;;;1039222;28;20071;-70
2023/10/14 03:05:51;;;;;;;0.10;0.10;;;;;;;;;;1036118;28;20039;-70
2023/10/14 03:06:22;;;;;;;0.55;0.55;;;;;;;;;;1038537;28;20076;-70
2023/10/14 03:06:54;;;;;;;0.10;0.10;;;;;;;;;;1035555;28;20108;-70
2023/10/14 03:07:30;;;;;;;0.15;0.15;;;;;;;;;;1036824;28;20029;-69
2023/10/14 03:08:12;;;;;;;0.10;0.10;;;;;;;;;;1038741;28;20033;-69
2023/10/14 03:08:57;;;;;;;0.10;0.10;;;;;;;;;;1034422;28;20056;-69
2023/10/14 03:09:33;;;;;;;0.10;0.10;;;;;;;;;;1034381;28;20037;-70
2023/10/14 03:10:59;;;;;;;;;;;;;;;;;;1039482;28;20373;-70
2023/10/14 03:11:32;;;;;;;0.10;0.10;;;;;;;;;;1035058;28;20388;-70
2023/10/14 03:12:05;;;;;;;0.10;0.10;;;;;;;;;;1033285;28;20394;-70
2023/10/14 03:12:39;;;;;;;3.38;1.08;;;;;;;;;;1034081;28;20699;-70
2023/10/14 03:13:13;;;;;;;0.75;0.70;;;;;;;;;;1032737;28;20069;-70
2023/10/14 03:13:45;;;;;;;0.10;0.10;;;;;;;;;;1037180;28;20032;-69
2023/10/14 03:14:17;;;;;;;0.10;0.10;;;;;;;;;;1034397;28;20520;-69
2023/10/14 03:14:49;;;;;;;0.10;0.10;;;;;;;;;;1034978;28;20033;-69
2023/10/14 03:15:21;;;;;;;0.47;0.35;;;;;;;;;;1035130;28;20079;-70
2023/10/14 03:15:55;;;;;;;0.25;0.25;;;;;;;;;;1034801;28;20114;-69
2023/10/14 03:16:27;;;;;;;0.10;0.10;;;;;;;;;;1032892;28;20044;-69
2023/10/14 03:16:58;;;;;;;0.30;0.30;;;;;;;;;;1034304;28;20040;-69
2023/10/14 03:17:43;;;;;;;1.27;0.50;;;;;;;;;;1036635;28;20033;-69
2023/10/14 03:18:16;;;;;;;0.10;0.10;;;;;;;;;;1040586;28;20064;-69
2023/10/14 03:18:47;;;;;;;0.82;0.43;;;;;;;;;;1041971;28;20075;-69
2023/10/14 03:19:21;;;;;;;0.10;0.10;;;;;;;;;;1041998;28;20037;-69
2023/10/14 03:19:55;;;;;;;0.10;0.10;;;;;;;;;;1041840;28;20481;-69
2023/10/14 03:21:00;;;;;;;0.10;0.10;;;;;;;;;;1039162;28;20063;-69
2023/10/14 03:21:33;;;;;;;5.90;1.25;;;;;;;;;;1039477;28;20142;-69
2023/10/14 03:22:06;;;;;;;0.10;0.10;;;;;;;;;;1039786;28;20720;-69
2023/10/14 03:22:38;;;;;;;0.10;0.10;;;;;;;;;;1041021;28;20049;-69
2023/10/14 03:23:23;;;;;;;0.15;0.15;;;;;;;;;;1041988;28;20032;-69
2023/10/14 03:23:56;;;;;;;0.30;0.30;;;;;;;;;;1041504;28;20033;-70
2023/10/14 03:24:30;;;;;;;0.10;0.10;;;;;;;;;;1036944;28;20033;-70
2023/10/14 03:25:09;;;;;;;0.20;0.20;;;;;;;;;;1037212;28;20033;-70
2023/10/14 03:25:39;;;;;;;0.10;0.10;;;;;;;;;;1034762;28;20112;-69
2023/10/14 03:26:47;;;;;;;0.35;0.35;;;;;;;;;;1034336;28;20132;-69
2023/10/14 03:27:18;;;;;;;0.10;0.10;;;;;;;;;;1031506;28;20037;-70
2023/10/14 03:27:50;;;;;;;0.10;0.10;;;;;;;;;;1034772;28;20075;-70
2023/10/14 03:28:21;;;;;;;0.10;0.10;;;;;;;;;;1038087;28;20024;-70
2023/10/14 03:28:52;;;;;;;0.20;0.20;;;;;;;;;;1037854;28;20040;-71
2023/10/14 03:29:25;;;;;;;0.10;0.10;;;;;;;;;;1041398;28;20413;-70
2023/10/14 03:29:58;;;;;;;0.10;0.10;;;;;;;;;;1036962;28;23409;-70
2023/10/14 03:30:31;;;;;;;0.10;0.10;;;;;;;;;;1036890;28;20032;-70
2023/10/14 03:31:06;;;;;;;0.10;0.10;;;;;;;;;;1034659;28;20077;-70
2023/10/14 03:31:38;;;;;;;5.38;0.47;;;;;;;;;;1037335;28;20029;-70
2023/10/14 03:32:10;;;;;;;0.13;0.13;;;;;;;;;;1036492;28;20040;-70
2023/10/14 03:32:43;;;;;;;0.10;0.10;;;;;;;;;;1035994;28;20044;-70
2023/10/14 03:33:20;;;;;;;0.50;0.50;;;;;;;;;;1038135;28;20028;-70
2023/10/14 03:33:58;;;;;;;0.63;0.63;;;;;;;;;;1038630;28;20108;-69
2023/10/14 03:34:32;;;;;;;0.28;0.22;;;;;;;;;;1034097;28;20533;-70
2023/10/14 03:35:13;;;;;;;0.30;0.30;;;;;;;;;;1035062;28;20037;-69
2023/10/14 03:35:54;;;;;;;0.10;0.10;;;;;;;;;;1032540;28;20022;-69
2023/10/14 03:36:31;;;;;;;0.20;0.20;;;;;;;;;;1037168;28;20215;-69
2023/10/14 03:37:16;;;;;;;0.10;0.10;;;;;;;;;;1035195;28;20041;-70
2023/10/14 03:37:59;;;;;;;0.28;0.28;;;;;;;;;;1038293;28;20041;-70